createdAt,value
2017-10-08T00:00:59.516Z,1.90
2017-10-08T00:03:27.163Z,2.03
2017-10-08T00:05:54.763Z,1.90
2017-10-08T00:08:22.759Z,1.97
2017-10-08T00:10:50.380Z,1.93
2017-10-08T00:13:19.052Z,2.23
2017-10-08T00:15:46.688Z,2.27
2017-10-08T00:18:14.441Z,2.07
2017-10-08T00:20:42.160Z,3.30
2017-10-08T00:23:10.008Z,1.80
2017-10-08T00:25:40.560Z,1.70
2017-10-08T00:28:10.192Z,1.80
2017-10-08T00:30:38.609Z,1.93
2017-10-08T00:33:06.273Z,1.77
2017-10-08T00:35:33.964Z,2.20
2017-10-08T00:38:05.408Z,1.67
2017-10-08T00:40:33.058Z,1.93
2017-10-08T00:43:02.205Z,2.57
2017-10-08T00:45:29.895Z,1.50
2017-10-08T00:47:57.592Z,1.87
2017-10-08T00:50:25.286Z,1.93
2017-10-08T00:52:55.008Z,1.70
2017-10-08T00:55:23.551Z,1.73
2017-10-08T00:57:51.471Z,1.93
2017-10-08T01:00:20.170Z,1.40
2017-10-08T01:02:47.932Z,2.23
2017-10-08T01:05:16.416Z,1.83
2017-10-08T01:07:44.057Z,2.00
2017-10-08T01:10:11.744Z,2.40
2017-10-08T01:12:39.398Z,1.67
2017-10-08T01:15:10.661Z,1.93
2017-10-08T01:17:38.352Z,1.97
2017-10-08T01:20:07.115Z,2.57
2017-10-08T01:22:34.860Z,2.27
2017-10-08T01:25:10.313Z,2.20
2017-10-08T01:27:42.622Z,2.27
2017-10-08T01:30:11.971Z,2.00
2017-10-08T01:32:39.696Z,2.10
2017-10-08T01:35:07.358Z,2.23
2017-10-08T01:37:35.833Z,2.30
2017-10-08T01:40:03.542Z,2.30
2017-10-08T01:42:31.371Z,2.40
2017-10-08T01:45:00.065Z,1.90
2017-10-08T01:47:29.673Z,1.77
2017-10-08T01:49:58.323Z,2.37
2017-10-08T01:52:27.589Z,2.60
2017-10-08T01:54:55.694Z,2.70
2017-10-08T01:57:26.173Z,2.70
2017-10-08T01:59:54.593Z,2.27
2017-10-08T02:02:22.682Z,2.33
2017-10-08T02:04:51.142Z,2.03
2017-10-08T02:07:19.111Z,2.20
2017-10-08T02:09:46.742Z,2.57
2017-10-08T02:12:16.286Z,2.20
2017-10-08T02:14:45.824Z,1.87
2017-10-08T02:17:13.473Z,2.80
2017-10-08T02:19:41.556Z,2.80
2017-10-08T02:22:09.227Z,2.07
2017-10-08T02:24:36.864Z,1.93
2017-10-08T02:27:06.399Z,2.17
2017-10-08T02:29:34.134Z,2.00
2017-10-08T02:32:01.773Z,1.90
2017-10-08T02:34:29.387Z,2.80
2017-10-08T02:36:57.933Z,3.20
2017-10-08T02:39:25.579Z,2.77
2017-10-08T02:41:53.662Z,2.27
2017-10-08T02:44:21.902Z,2.50
2017-10-08T02:46:49.602Z,2.90
2017-10-08T02:49:18.233Z,2.63
2017-10-08T02:51:49.630Z,2.70
2017-10-08T02:54:18.127Z,2.67
2017-10-08T02:56:46.326Z,2.33
2017-10-08T02:59:14.476Z,2.50
2017-10-08T03:01:44.137Z,2.43
2017-10-08T03:04:11.849Z,3.27
2017-10-08T03:06:39.503Z,1.97
2017-10-08T03:09:07.196Z,3.07
2017-10-08T03:11:34.853Z,2.90
2017-10-08T03:14:02.491Z,3.23
2017-10-08T03:16:30.079Z,2.93
2017-10-08T03:18:58.403Z,3.30
2017-10-08T03:21:26.106Z,3.97
2017-10-08T03:23:53.744Z,3.17
2017-10-08T03:26:21.377Z,2.90
2017-10-08T03:28:49.043Z,4.30
2017-10-08T03:31:16.658Z,3.37
2017-10-08T03:33:45.231Z,3.60
2017-10-08T03:36:12.891Z,3.30
2017-10-08T03:38:40.476Z,3.70
2017-10-08T03:41:08.053Z,2.80
2017-10-08T03:43:35.682Z,3.30
2017-10-08T03:46:03.302Z,2.67
2017-10-08T03:48:31.742Z,2.77
2017-10-08T03:50:59.392Z,3.37
2017-10-08T03:53:27.213Z,3.07
2017-10-08T03:55:55.663Z,2.47
2017-10-08T03:58:23.268Z,2.70
2017-10-08T04:00:51.933Z,3.10
2017-10-08T04:03:21.320Z,2.77
2017-10-08T04:05:48.968Z,2.30
2017-10-08T04:08:16.613Z,2.50
2017-10-08T04:10:44.196Z,3.17
2017-10-08T04:13:11.819Z,2.30
2017-10-08T04:15:39.493Z,2.00
2017-10-08T04:18:07.887Z,1.90
2017-10-08T04:20:35.492Z,2.00
2017-10-08T04:23:03.908Z,2.03
2017-10-08T04:25:32.193Z,2.10
2017-10-08T04:27:59.781Z,2.00
2017-10-08T04:30:27.836Z,1.97
2017-10-08T04:32:55.453Z,2.20
2017-10-08T04:35:23.986Z,1.83
2017-10-08T04:37:51.603Z,1.83
2017-10-08T04:40:20.010Z,1.67
2017-10-08T04:42:47.671Z,1.50
2017-10-08T04:45:15.368Z,2.30
2017-10-08T04:47:43.035Z,1.73
2017-10-08T04:50:10.714Z,1.73
2017-10-08T04:52:38.308Z,1.90
2017-10-08T04:55:06.033Z,2.30
2017-10-08T04:57:33.748Z,1.97
2017-10-08T05:00:01.592Z,2.57
2017-10-08T05:02:29.267Z,2.07
2017-10-08T05:04:56.931Z,2.07
2017-10-08T05:07:25.312Z,2.37
2017-10-08T05:09:52.928Z,2.47
2017-10-08T05:12:21.708Z,2.70
2017-10-08T05:14:49.332Z,1.97
2017-10-08T05:17:16.966Z,1.67
2017-10-08T05:19:45.372Z,1.77
2017-10-08T05:22:12.965Z,1.73
2017-10-08T05:24:40.564Z,2.30
2017-10-08T05:27:09.196Z,2.10
2017-10-08T05:29:36.847Z,1.80
2017-10-08T05:32:04.476Z,1.97
2017-10-08T05:34:32.932Z,2.00
2017-10-08T05:37:00.526Z,1.77
2017-10-08T05:39:28.893Z,2.00
2017-10-08T05:41:56.547Z,1.90
2017-10-08T05:44:24.978Z,2.37
2017-10-08T05:46:52.693Z,3.07
2017-10-08T05:49:21.086Z,2.43
2017-10-08T05:51:48.987Z,2.40
2017-10-08T05:54:16.610Z,2.10
2017-10-08T05:56:45.210Z,2.70
2017-10-08T05:59:12.863Z,1.73
2017-10-08T06:01:41.222Z,2.43
2017-10-08T06:04:08.982Z,1.90
2017-10-08T06:06:37.564Z,2.33
2017-10-08T06:09:05.342Z,2.70
2017-10-08T06:11:33.026Z,1.77
2017-10-08T06:14:00.705Z,2.07
2017-10-08T06:16:28.341Z,2.00
2017-10-08T06:18:55.929Z,1.80
2017-10-08T06:21:23.626Z,2.10
2017-10-08T06:23:51.817Z,2.37
2017-10-08T06:26:20.233Z,2.60
2017-10-08T06:28:48.054Z,2.60
2017-10-08T06:31:15.666Z,2.37
2017-10-08T06:33:43.425Z,3.67
2017-10-08T06:36:11.811Z,3.27
2017-10-08T06:38:41.655Z,2.47
2017-10-08T06:41:09.338Z,2.43
2017-10-08T06:43:36.979Z,2.10
2017-10-08T06:46:04.571Z,1.80
2017-10-08T06:48:34.266Z,2.33
2017-10-08T06:51:01.908Z,2.27
2017-10-08T06:53:29.539Z,1.60
2017-10-08T06:55:57.150Z,2.20
2017-10-08T06:58:24.798Z,2.10
2017-10-08T07:00:52.402Z,1.97
2017-10-08T07:03:19.982Z,2.53
2017-10-08T07:05:48.360Z,1.50
2017-10-08T07:08:16.718Z,1.77
2017-10-08T07:10:44.311Z,2.20
2017-10-08T07:13:12.035Z,2.00
2017-10-08T07:15:39.654Z,1.60
2017-10-08T07:18:08.035Z,1.40
2017-10-08T07:20:35.654Z,0.97
2017-10-08T07:23:04.081Z,1.00
2017-10-08T07:25:31.809Z,0.93
2017-10-08T07:28:00.170Z,1.00
2017-10-08T07:30:28.708Z,1.33
2017-10-08T07:32:56.359Z,1.13
2017-10-08T07:35:23.996Z,1.20
2017-10-08T07:37:51.596Z,1.20
2017-10-08T07:40:19.239Z,1.50
2017-10-08T07:42:46.854Z,1.73
2017-10-08T07:45:14.533Z,2.30
2017-10-08T07:47:42.902Z,2.33
2017-10-08T07:50:10.532Z,3.40
2017-10-08T07:52:38.141Z,3.30
2017-10-08T07:55:06.665Z,2.00
2017-10-08T07:57:34.275Z,1.50
2017-10-08T08:00:01.995Z,1.60
2017-10-08T08:02:29.770Z,2.20
2017-10-08T08:04:57.348Z,2.20
2017-10-08T08:07:25.262Z,2.10
2017-10-08T08:09:53.233Z,1.27
2017-10-08T08:12:20.780Z,1.33
2017-10-08T08:14:49.136Z,1.20
2017-10-08T08:17:17.961Z,1.30
2017-10-08T08:19:45.935Z,1.07
2017-10-08T08:22:13.548Z,0.97
2017-10-08T08:24:41.166Z,1.13
2017-10-08T08:27:09.066Z,1.53
2017-10-08T08:29:37.005Z,0.90
2017-10-08T08:32:04.636Z,0.97
2017-10-08T08:34:32.976Z,0.90
2017-10-08T08:37:00.553Z,0.87
2017-10-08T08:39:28.172Z,0.90
2017-10-08T08:41:55.765Z,0.70
2017-10-08T08:44:23.507Z,0.70
2017-10-08T08:46:51.119Z,0.70
2017-10-08T08:49:18.894Z,0.93
2017-10-08T08:51:47.354Z,0.80
2017-10-08T08:54:15.129Z,1.10
2017-10-08T08:56:43.489Z,0.70
2017-10-08T08:59:11.102Z,0.70
2017-10-08T09:01:38.760Z,1.00
2017-10-08T09:04:06.341Z,0.50
2017-10-08T09:06:33.974Z,0.73
2017-10-08T09:09:01.605Z,0.80
2017-10-08T09:11:29.211Z,1.17
2017-10-08T09:13:57.066Z,0.67
2017-10-08T09:16:24.696Z,0.77
2017-10-08T09:18:52.229Z,0.87
2017-10-08T09:21:21.855Z,1.10
2017-10-08T09:23:50.258Z,0.90
2017-10-08T09:26:18.620Z,0.80
2017-10-08T09:28:46.294Z,0.90
2017-10-08T09:31:14.534Z,0.80
2017-10-08T09:33:42.180Z,0.93
2017-10-08T09:36:09.794Z,0.87
2017-10-08T09:38:37.395Z,0.70
2017-10-08T09:41:05.160Z,1.10
2017-10-08T09:43:33.359Z,0.80
2017-10-08T09:46:01.039Z,0.90
2017-10-08T09:48:28.668Z,0.83
2017-10-08T09:50:56.294Z,0.97
2017-10-08T09:53:24.683Z,1.00
2017-10-08T09:55:52.285Z,0.90
2017-10-08T09:58:19.891Z,1.30
2017-10-08T10:00:47.573Z,1.23
2017-10-08T10:03:15.246Z,1.40
2017-10-08T10:05:43.506Z,1.10
2017-10-08T10:08:11.119Z,0.90
2017-10-08T10:10:38.967Z,1.57
2017-10-08T10:13:06.694Z,1.10
2017-10-08T10:15:35.427Z,0.90
2017-10-08T10:18:03.232Z,1.10
2017-10-08T10:20:30.954Z,0.80
2017-10-08T10:23:00.341Z,0.80
2017-10-08T10:25:28.012Z,0.70
2017-10-08T10:27:58.735Z,0.90
2017-10-08T10:30:26.351Z,0.80
2017-10-08T10:32:54.057Z,0.80
2017-10-08T10:35:21.749Z,0.70
2017-10-08T10:37:54.085Z,0.80
2017-10-08T10:40:21.998Z,0.80
2017-10-08T10:42:49.640Z,0.80
2017-10-08T10:45:17.241Z,0.90
2017-10-08T10:47:45.752Z,0.97
2017-10-08T10:50:13.368Z,0.80
2017-10-08T10:52:42.211Z,0.80
2017-10-08T10:55:09.973Z,0.90
2017-10-08T10:57:38.488Z,0.70
2017-10-08T11:00:06.176Z,1.00
2017-10-08T11:02:33.876Z,1.40
2017-10-08T11:05:01.492Z,0.87
2017-10-08T11:07:29.122Z,0.90
2017-10-08T11:09:56.866Z,1.00
2017-10-08T11:12:38.150Z,1.30
2017-10-08T11:15:14.800Z,1.10
2017-10-08T11:17:43.413Z,1.00
2017-10-08T11:20:12.174Z,0.80
2017-10-08T11:22:39.884Z,0.90
2017-10-08T11:25:09.343Z,1.10
2017-10-08T11:27:38.892Z,1.43
2017-10-08T11:32:42.403Z,1.43
2017-10-08T11:35:17.467Z,1.13
2017-10-08T11:37:53.694Z,1.27
2017-10-08T11:40:21.940Z,0.90
2017-10-08T11:42:49.906Z,1.40
2017-10-08T11:45:18.170Z,1.60
2017-10-08T11:47:46.688Z,1.77
2017-10-08T11:50:14.781Z,1.20
2017-10-08T11:52:42.534Z,1.80
2017-10-08T11:55:10.816Z,2.10
2017-10-08T11:57:38.804Z,1.80
2017-10-08T12:00:06.544Z,1.70
2017-10-08T12:02:34.905Z,1.70
2017-10-08T12:05:02.637Z,1.70
2017-10-08T12:07:30.637Z,1.77
2017-10-08T12:09:58.667Z,2.83
2017-10-08T12:12:26.343Z,1.97
2017-10-08T12:14:53.943Z,2.17
2017-10-08T12:17:22.585Z,1.93
2017-10-08T12:19:50.262Z,2.30
2017-10-08T12:22:17.898Z,2.27
2017-10-08T12:24:45.517Z,1.63
2017-10-08T12:27:13.933Z,2.70
2017-10-08T12:29:41.551Z,2.20
2017-10-08T12:32:09.926Z,1.80
2017-10-08T12:34:38.311Z,1.80
2017-10-08T12:37:07.826Z,1.73
2017-10-08T12:39:36.612Z,1.70
2017-10-08T12:42:05.001Z,1.57
2017-10-08T12:44:51.899Z,1.90
2017-10-08T12:47:23.126Z,1.90
2017-10-08T12:49:51.752Z,1.93
2017-10-08T12:52:20.761Z,1.70
2017-10-08T12:54:48.411Z,1.93
2017-10-08T12:57:16.045Z,2.33
2017-10-08T12:59:44.443Z,2.10
2017-10-08T13:02:12.626Z,2.10
2017-10-08T13:04:41.403Z,1.90
2017-10-08T13:07:09.495Z,1.77
2017-10-08T13:09:37.329Z,1.57
2017-10-08T13:12:04.945Z,1.50
2017-10-08T13:14:32.787Z,1.30
2017-10-08T13:17:01.364Z,1.80
2017-10-08T13:19:29.231Z,1.77
2017-10-08T13:21:56.888Z,1.40
2017-10-08T13:24:25.272Z,1.43
2017-10-08T13:26:52.930Z,1.30
2017-10-08T13:29:20.570Z,1.30
2017-10-08T13:31:49.773Z,1.47
2017-10-08T13:34:18.207Z,1.13
2017-10-08T13:36:45.921Z,1.50
2017-10-08T13:39:14.307Z,1.60
2017-10-08T13:41:42.714Z,1.47
2017-10-08T13:44:10.333Z,2.40
2017-10-08T13:46:38.749Z,1.70
2017-10-08T13:49:06.443Z,1.20
2017-10-08T13:51:34.040Z,1.53
2017-10-08T13:54:02.459Z,1.27
2017-10-08T13:56:30.109Z,1.27
2017-10-08T13:58:57.727Z,1.27
2017-10-08T14:01:25.335Z,1.80
2017-10-08T14:03:52.981Z,1.47
2017-10-08T14:06:21.344Z,2.03
2017-10-08T14:08:49.207Z,1.60
2017-10-08T14:11:17.020Z,10.33
2017-10-08T14:13:44.688Z,3.20
2017-10-08T14:16:13.043Z,2.20
2017-10-08T14:18:41.125Z,1.30
2017-10-08T14:21:08.818Z,1.30
2017-10-08T14:23:36.543Z,1.60
2017-10-08T14:26:04.277Z,1.80
2017-10-08T14:28:32.692Z,1.90
2017-10-08T14:31:00.399Z,1.80
2017-10-08T14:33:28.036Z,2.70
2017-10-08T14:35:55.666Z,3.00
2017-10-08T14:38:24.066Z,2.30
2017-10-08T14:40:52.048Z,1.77
2017-10-08T14:43:19.667Z,2.03
2017-10-08T14:45:48.132Z,2.00
2017-10-08T14:48:16.662Z,1.13
2017-10-08T14:50:44.363Z,1.40
2017-10-08T14:53:12.507Z,2.10
2017-10-08T14:55:40.265Z,2.80
2017-10-08T14:58:07.915Z,5.00
2017-10-08T15:00:36.658Z,2.33
2017-10-08T15:03:04.339Z,2.20
2017-10-08T15:05:32.043Z,1.83
2017-10-08T15:07:59.699Z,2.30
2017-10-08T15:10:27.477Z,3.07
2017-10-08T15:12:55.374Z,2.17
2017-10-08T15:15:29.687Z,2.70
2017-10-08T15:17:57.484Z,2.57
2017-10-08T15:20:25.930Z,2.93
2017-10-08T15:22:54.920Z,2.13
2017-10-08T15:25:22.588Z,1.93
2017-10-08T15:27:50.213Z,1.53
2017-10-08T15:30:17.854Z,1.73
2017-10-08T15:32:46.306Z,2.40
2017-10-08T15:35:14.026Z,2.10
2017-10-08T15:37:41.978Z,2.00
2017-10-08T15:40:09.672Z,2.07
2017-10-08T15:42:37.428Z,2.50
2017-10-08T15:45:05.378Z,2.60
2017-10-08T15:47:33.148Z,7.67
2017-10-08T15:50:00.866Z,6.80
2017-10-08T15:52:28.604Z,4.27
2017-10-08T15:54:56.276Z,3.33
2017-10-08T15:57:24.081Z,3.10
2017-10-08T15:59:51.738Z,3.67
2017-10-08T16:02:20.200Z,3.93
2017-10-08T16:04:47.888Z,3.30
2017-10-08T16:07:15.665Z,3.10
2017-10-08T16:09:43.532Z,3.80
2017-10-08T16:12:12.227Z,3.67
2017-10-08T16:14:39.892Z,3.60
2017-10-08T16:17:07.639Z,5.20
2017-10-08T16:19:35.332Z,3.87
2017-10-08T16:22:03.257Z,3.50
2017-10-08T16:24:30.874Z,3.87
2017-10-08T16:26:58.525Z,2.70
2017-10-08T16:29:26.243Z,4.30
2017-10-08T16:31:53.935Z,3.37
2017-10-08T16:34:21.737Z,3.40
2017-10-08T16:36:49.353Z,3.90
2017-10-08T16:39:17.010Z,3.53
2017-10-08T16:41:45.432Z,2.80
2017-10-08T16:44:13.045Z,3.50
2017-10-08T16:46:41.532Z,4.23
2017-10-08T16:49:09.924Z,3.17
2017-10-08T16:51:37.588Z,3.20
2017-10-08T16:54:06.171Z,3.50
2017-10-08T16:56:34.723Z,6.97
2017-10-08T16:59:02.404Z,4.53
2017-10-08T17:01:30.048Z,2.67
2017-10-08T17:03:57.672Z,3.10
2017-10-08T17:06:25.303Z,2.60
2017-10-08T17:08:53.703Z,3.53
2017-10-08T17:11:21.519Z,3.60
2017-10-08T17:13:49.196Z,3.10
2017-10-08T17:16:17.420Z,2.70
2017-10-08T17:18:45.448Z,2.80
2017-10-08T17:21:13.143Z,2.50
2017-10-08T17:23:41.243Z,2.73
2017-10-08T17:26:09.243Z,2.90
2017-10-08T17:28:36.930Z,2.70
2017-10-08T17:31:05.373Z,2.70
2017-10-08T17:33:34.042Z,2.50
2017-10-08T17:36:01.753Z,2.77
2017-10-08T17:38:30.146Z,2.77
2017-10-08T17:40:58.567Z,3.30
2017-10-08T17:43:26.206Z,3.83
2017-10-08T17:45:53.832Z,3.83
2017-10-08T17:48:21.436Z,4.27
2017-10-08T17:50:49.085Z,3.43
2017-10-08T17:53:17.505Z,2.90
2017-10-08T17:55:45.407Z,2.80
2017-10-08T17:58:13.206Z,3.80
2017-10-08T18:00:40.845Z,3.07
2017-10-08T18:03:09.464Z,3.97
2017-10-08T18:05:38.368Z,4.17
2017-10-08T18:08:05.995Z,4.97
2017-10-08T18:10:33.656Z,4.40
2017-10-08T18:13:02.040Z,4.93
2017-10-08T18:15:29.626Z,3.70
2017-10-08T18:17:57.347Z,3.20
2017-10-08T18:20:25.014Z,4.67
2017-10-08T18:22:53.726Z,4.40
2017-10-08T18:25:21.490Z,3.70
2017-10-08T18:27:49.242Z,4.20
2017-10-08T18:30:17.649Z,5.43
2017-10-08T18:32:46.574Z,5.73
2017-10-08T18:35:14.313Z,8.13
2017-10-08T18:37:42.213Z,7.33
2017-10-08T18:40:09.929Z,6.67
2017-10-08T18:42:37.905Z,7.27
2017-10-08T18:45:07.606Z,6.80
2017-10-08T18:47:35.692Z,5.73
2017-10-08T18:50:03.482Z,6.30
2017-10-08T18:52:31.364Z,6.53
2017-10-08T18:54:59.261Z,5.70
2017-10-08T18:57:26.937Z,5.90
2017-10-08T18:59:54.581Z,6.30
2017-10-08T19:02:22.961Z,7.90
2017-10-08T19:04:51.442Z,8.63
2017-10-08T19:07:19.922Z,6.33
2017-10-08T19:09:47.623Z,7.60
2017-10-08T19:12:15.272Z,7.30
2017-10-08T19:14:42.899Z,6.30
2017-10-08T19:17:11.521Z,7.27
2017-10-08T19:19:39.289Z,8.20
2017-10-08T19:22:07.029Z,10.10
2017-10-08T19:24:34.770Z,8.80
2017-10-08T19:27:02.572Z,9.40
2017-10-08T19:29:30.267Z,8.90
2017-10-08T19:31:57.930Z,7.90
2017-10-08T19:34:25.751Z,7.77
2017-10-08T19:36:54.138Z,7.77
2017-10-08T19:39:21.864Z,7.97
2017-10-08T19:41:52.692Z,9.43
2017-10-08T19:44:21.718Z,8.77
2017-10-08T19:46:50.220Z,8.37
2017-10-08T19:49:18.359Z,8.53
2017-10-08T19:51:46.159Z,9.13
2017-10-08T19:54:14.842Z,8.47
2017-10-08T19:56:42.510Z,7.40
2017-10-08T19:59:10.189Z,8.40
2017-10-08T20:01:37.824Z,8.43
2017-10-08T20:04:05.483Z,8.37
2017-10-08T20:06:33.956Z,8.50
2017-10-08T20:09:02.424Z,8.20
2017-10-08T20:11:30.093Z,9.00
2017-10-08T20:13:57.752Z,9.37
2017-10-08T20:16:25.434Z,10.03
2017-10-08T20:18:53.900Z,10.50
2017-10-08T20:21:22.316Z,9.90
2017-10-08T20:23:49.948Z,11.03
2017-10-08T20:26:17.688Z,10.00
2017-10-08T20:28:45.313Z,10.73
2017-10-08T20:31:13.692Z,13.73
2017-10-08T20:33:41.376Z,12.40
2017-10-08T20:36:09.089Z,12.70
2017-10-08T20:38:36.752Z,11.60
2017-10-08T20:41:05.330Z,10.83
2017-10-08T20:43:34.727Z,13.37
2017-10-08T20:46:03.107Z,14.40
2017-10-08T20:48:31.578Z,11.70
2017-10-08T20:51:00.199Z,11.90
2017-10-08T20:53:30.496Z,11.83
2017-10-08T20:55:59.100Z,16.30
2017-10-08T20:58:26.871Z,15.73
2017-10-08T21:00:54.604Z,14.77
2017-10-08T21:03:23.381Z,13.97
2017-10-08T21:05:51.061Z,9.80
2017-10-08T21:08:19.642Z,10.40
2017-10-08T21:10:48.139Z,11.03
2017-10-08T21:13:17.109Z,12.37
2017-10-08T21:15:45.646Z,11.97
2017-10-08T21:18:13.352Z,11.67
2017-10-08T21:20:41.010Z,11.97
2017-10-08T21:23:12.607Z,14.43
2017-10-08T21:31:09.990Z,14.17
2017-10-08T21:33:38.886Z,12.83
2017-10-08T21:36:10.296Z,11.27
2017-10-08T21:38:37.986Z,8.93
2017-10-08T21:41:06.597Z,1.33
2017-10-08T21:43:34.285Z,1.30
2017-10-08T21:46:01.929Z,1.37
2017-10-08T21:48:29.595Z,1.70
2017-10-08T21:50:57.269Z,0.93
2017-10-08T21:53:25.197Z,1.03
2017-10-08T21:55:52.990Z,1.47
2017-10-08T21:58:20.713Z,1.20
2017-10-08T22:00:49.149Z,2.40
2017-10-08T22:03:18.079Z,2.00
2017-10-08T22:05:45.772Z,2.37
2017-10-08T22:08:16.323Z,3.00
2017-10-08T22:10:43.952Z,2.50
2017-10-08T22:13:11.790Z,1.50
2017-10-08T22:15:40.345Z,2.90
2017-10-08T22:18:07.972Z,2.50
2017-10-08T22:20:37.153Z,2.50
2017-10-08T22:23:06.228Z,2.30
2017-10-08T22:25:35.178Z,1.77
2017-10-08T22:28:02.827Z,3.13
2017-10-08T22:30:31.920Z,3.23
2017-10-08T22:33:00.298Z,4.03
2017-10-08T22:35:29.478Z,3.53
2017-10-08T22:37:57.112Z,3.70
2017-10-08T22:40:24.708Z,3.50
2017-10-08T22:42:52.418Z,3.30
2017-10-08T22:45:20.155Z,3.77
2017-10-08T22:47:48.527Z,3.67
2017-10-08T22:50:16.882Z,4.30
2017-10-08T22:52:44.492Z,2.67
2017-10-08T22:55:12.362Z,1.93
2017-10-08T22:57:40.192Z,2.77
2017-10-08T23:00:10.874Z,3.40
2017-10-08T23:02:38.483Z,2.80
2017-10-08T23:05:06.471Z,2.10
2017-10-08T23:07:34.893Z,2.53
2017-10-08T23:10:02.496Z,2.80
2017-10-08T23:12:30.346Z,3.73
2017-10-08T23:14:57.960Z,4.20
2017-10-08T23:17:25.891Z,4.23
2017-10-08T23:19:53.518Z,5.70
2017-10-08T23:22:21.143Z,5.40
2017-10-08T23:24:48.777Z,4.03
2017-10-08T23:27:16.449Z,3.27
2017-10-08T23:29:44.801Z,3.90
2017-10-08T23:32:12.485Z,4.03
2017-10-08T23:34:40.903Z,4.00
2017-10-08T23:37:08.943Z,4.67
2017-10-08T23:39:37.408Z,4.77
2017-10-08T23:42:05.856Z,5.20
2017-10-08T23:44:33.610Z,4.83
2017-10-08T23:47:01.311Z,4.80
2017-10-08T23:49:29.075Z,5.00
2017-10-08T23:51:56.718Z,5.83
2017-10-08T23:54:24.384Z,5.90
2017-10-08T23:56:52.276Z,6.83
2017-10-08T23:59:19.928Z,8.07
